createdAt,value
2017-07-06T00:00:04.433Z,0
2017-07-06T00:01:05.856Z,0
2017-07-06T00:02:07.280Z,0
2017-07-06T00:03:08.705Z,0
2017-07-06T00:04:10.133Z,0
2017-07-06T00:05:11.580Z,0
2017-07-06T00:06:13.014Z,0
2017-07-06T00:07:14.451Z,0
2017-07-06T00:08:15.876Z,0
2017-07-06T00:09:17.366Z,0
2017-07-06T00:10:18.733Z,0
2017-07-06T00:11:20.166Z,0
2017-07-06T00:12:21.588Z,0
2017-07-06T00:13:23.014Z,0
2017-07-06T00:14:24.441Z,0
2017-07-06T00:15:25.870Z,0
2017-07-06T00:16:27.294Z,0
2017-07-06T00:17:28.717Z,0
2017-07-06T00:18:30.146Z,0
2017-07-06T00:19:31.574Z,0
2017-07-06T00:20:33.003Z,0
2017-07-06T00:21:34.424Z,0
2017-07-06T00:22:35.847Z,0
2017-07-06T00:23:37.285Z,0
2017-07-06T00:24:38.697Z,0
2017-07-06T00:25:40.130Z,0
2017-07-06T00:26:41.552Z,0
2017-07-06T00:27:42.979Z,0
2017-07-06T00:28:44.403Z,0
2017-07-06T00:29:45.836Z,0
2017-07-06T00:30:47.268Z,0
2017-07-06T00:31:48.696Z,0
2017-07-06T00:32:50.104Z,0
2017-07-06T00:33:51.564Z,0
2017-07-06T00:34:53.000Z,0
2017-07-06T00:35:54.423Z,0
2017-07-06T00:36:55.866Z,0
2017-07-06T00:37:57.291Z,0
2017-07-06T00:38:58.721Z,0
2017-07-06T00:40:00.136Z,0
2017-07-06T00:41:01.568Z,0
2017-07-06T00:42:03.001Z,0
2017-07-06T00:43:04.425Z,0
2017-07-06T00:44:05.855Z,0
2017-07-06T00:45:07.283Z,0
2017-07-06T00:46:08.708Z,0
2017-07-06T00:47:10.138Z,0
2017-07-06T00:48:11.563Z,0
2017-07-06T00:49:12.985Z,0
2017-07-06T00:50:14.409Z,0
2017-07-06T00:51:15.842Z,0
2017-07-06T00:52:17.268Z,0
2017-07-06T00:53:18.701Z,0
2017-07-06T00:54:20.127Z,0
2017-07-06T00:55:21.551Z,0
2017-07-06T00:56:23.722Z,0
2017-07-06T00:57:25.148Z,0
2017-07-06T00:58:26.573Z,0
2017-07-06T00:59:27.998Z,0
2017-07-06T01:00:29.420Z,0
2017-07-06T01:01:30.850Z,0
2017-07-06T01:02:32.279Z,0
2017-07-06T01:03:33.705Z,0
2017-07-06T01:04:35.131Z,0
2017-07-06T01:05:36.556Z,0
2017-07-06T01:06:37.994Z,0
2017-07-06T01:07:39.418Z,0
2017-07-06T01:08:40.852Z,0
2017-07-06T01:09:42.278Z,0
2017-07-06T01:10:43.706Z,0
2017-07-06T01:11:45.135Z,0
2017-07-06T01:12:46.557Z,0
2017-07-06T01:13:47.982Z,0
2017-07-06T01:14:49.408Z,0
2017-07-06T01:15:50.838Z,0
2017-07-06T01:16:52.262Z,0
2017-07-06T01:17:53.687Z,0
2017-07-06T01:18:55.114Z,0
2017-07-06T01:19:56.538Z,0
2017-07-06T01:20:57.961Z,0
2017-07-06T01:21:59.383Z,0
2017-07-06T01:23:00.807Z,0
2017-07-06T01:24:02.241Z,0
2017-07-06T01:25:03.668Z,0
2017-07-06T01:26:05.094Z,0
2017-07-06T01:27:06.519Z,0
2017-07-06T01:28:07.946Z,0
2017-07-06T01:29:09.388Z,0
2017-07-06T01:30:10.818Z,0
2017-07-06T01:31:12.243Z,0
2017-07-06T01:32:13.670Z,0
2017-07-06T01:33:15.095Z,0
2017-07-06T01:34:16.521Z,0
2017-07-06T01:35:17.948Z,0
2017-07-06T01:36:19.373Z,0
2017-07-06T01:37:20.798Z,0
2017-07-06T01:38:22.224Z,0
2017-07-06T01:39:23.645Z,0
2017-07-06T01:40:25.071Z,0
2017-07-06T01:41:26.497Z,0
2017-07-06T01:42:27.925Z,0
2017-07-06T01:43:29.351Z,0
2017-07-06T01:44:30.774Z,0
2017-07-06T01:45:32.196Z,0
2017-07-06T01:46:33.624Z,0
2017-07-06T01:47:35.055Z,0
2017-07-06T01:48:36.480Z,0
2017-07-06T01:49:37.906Z,0
2017-07-06T01:50:39.333Z,0
2017-07-06T01:51:40.762Z,0
2017-07-06T01:52:42.186Z,0
2017-07-06T01:53:43.618Z,0
2017-07-06T01:54:45.034Z,0
2017-07-06T01:55:46.458Z,0
2017-07-06T01:56:47.884Z,0
2017-07-06T01:57:49.309Z,0
2017-07-06T01:58:50.733Z,0
2017-07-06T01:59:52.159Z,0
2017-07-06T02:00:53.581Z,0
2017-07-06T02:01:55.007Z,0
2017-07-06T02:02:56.432Z,0
2017-07-06T02:03:57.858Z,0
2017-07-06T02:04:59.283Z,0
2017-07-06T02:06:00.707Z,0
2017-07-06T02:07:02.154Z,0
2017-07-06T02:08:03.576Z,0
2017-07-06T02:09:05.004Z,0
2017-07-06T02:10:06.433Z,0
2017-07-06T02:11:07.857Z,0
2017-07-06T02:12:09.279Z,0
2017-07-06T02:13:10.705Z,0
2017-07-06T02:14:12.130Z,0
2017-07-06T02:15:13.552Z,0
2017-07-06T02:16:14.978Z,0
2017-07-06T02:17:16.404Z,0
2017-07-06T02:18:17.824Z,0
2017-07-06T02:19:19.250Z,0
2017-07-06T02:20:20.674Z,0
2017-07-06T02:21:22.100Z,0
2017-07-06T02:22:23.527Z,0
2017-07-06T02:23:24.954Z,0
2017-07-06T02:24:26.380Z,0
2017-07-06T02:25:27.809Z,0
2017-07-06T02:26:29.233Z,0
2017-07-06T02:27:30.658Z,0
2017-07-06T02:28:32.084Z,0
2017-07-06T02:29:33.516Z,0
2017-07-06T02:30:34.945Z,0
2017-07-06T02:31:36.406Z,0
2017-07-06T02:32:37.807Z,0
2017-07-06T02:33:39.228Z,0
2017-07-06T02:34:40.656Z,0
2017-07-06T02:35:42.080Z,0
2017-07-06T02:36:43.507Z,0
2017-07-06T02:37:44.931Z,0
2017-07-06T02:38:46.356Z,0
2017-07-06T02:39:47.780Z,0
2017-07-06T02:40:49.205Z,0
2017-07-06T02:41:50.630Z,0
2017-07-06T02:42:52.055Z,0
2017-07-06T02:43:53.479Z,0
2017-07-06T02:44:54.940Z,0
2017-07-06T02:45:56.361Z,0
2017-07-06T02:46:57.788Z,0
2017-07-06T02:47:59.211Z,0
2017-07-06T02:49:00.635Z,0
2017-07-06T02:50:02.080Z,0
2017-07-06T02:51:03.504Z,0
2017-07-06T02:52:04.927Z,0
2017-07-06T02:53:06.352Z,0
2017-07-06T02:54:07.777Z,0
2017-07-06T02:55:09.209Z,0
2017-07-06T02:56:10.636Z,0
2017-07-06T02:57:12.061Z,0
2017-07-06T02:58:13.485Z,0
2017-07-06T02:59:14.910Z,0
2017-07-06T03:00:16.327Z,0
2017-07-06T03:01:17.757Z,0
2017-07-06T03:02:19.183Z,0
2017-07-06T03:03:20.615Z,0
2017-07-06T03:04:22.061Z,0
2017-07-06T03:05:23.485Z,0
2017-07-06T03:06:24.910Z,0
2017-07-06T03:07:26.333Z,0
2017-07-06T03:08:27.760Z,0
2017-07-06T03:09:29.181Z,0
2017-07-06T03:10:30.605Z,0
2017-07-06T03:11:32.032Z,0
2017-07-06T03:12:33.454Z,0
2017-07-06T03:13:34.890Z,0
2017-07-06T03:14:36.336Z,0
2017-07-06T03:15:37.761Z,0
2017-07-06T03:16:39.187Z,0
2017-07-06T03:17:40.612Z,4
2017-07-06T03:18:42.068Z,4
2017-07-06T03:19:43.490Z,4
2017-07-06T03:20:44.913Z,4
2017-07-06T03:21:46.340Z,4
2017-07-06T03:22:47.768Z,4
2017-07-06T03:23:49.207Z,4
2017-07-06T03:24:50.626Z,4
2017-07-06T03:25:52.053Z,4
2017-07-06T03:26:53.473Z,4
2017-07-06T03:27:54.899Z,4
2017-07-06T03:28:56.324Z,4
2017-07-06T03:29:57.747Z,4
2017-07-06T03:30:59.174Z,8
2017-07-06T03:32:00.597Z,8
2017-07-06T03:33:02.013Z,8
2017-07-06T03:34:03.433Z,8
2017-07-06T03:35:04.874Z,8
2017-07-06T03:36:06.296Z,8
2017-07-06T03:37:07.726Z,8
2017-07-06T03:38:09.157Z,12
2017-07-06T03:39:10.582Z,12
2017-07-06T03:40:12.009Z,12
2017-07-06T03:41:13.433Z,12
2017-07-06T03:42:14.895Z,12
2017-07-06T03:43:16.323Z,12
2017-07-06T03:44:17.753Z,16
2017-07-06T03:45:19.173Z,16
2017-07-06T03:46:20.596Z,16
2017-07-06T03:47:22.024Z,16
2017-07-06T03:48:23.449Z,20
2017-07-06T03:49:24.874Z,16
2017-07-06T03:50:26.300Z,20
2017-07-06T03:51:27.728Z,20
2017-07-06T03:52:29.150Z,24
2017-07-06T03:53:30.590Z,24
2017-07-06T03:54:32.020Z,20
2017-07-06T03:55:33.450Z,24
2017-07-06T03:56:34.877Z,24
2017-07-06T03:57:36.301Z,28
2017-07-06T03:58:37.727Z,24
2017-07-06T03:59:39.150Z,28
2017-07-06T04:00:40.586Z,28
2017-07-06T04:01:42.013Z,28
2017-07-06T04:02:43.434Z,32
2017-07-06T04:03:44.872Z,28
2017-07-06T04:04:46.301Z,32
2017-07-06T04:05:47.724Z,32
2017-07-06T04:06:49.149Z,32
2017-07-06T04:07:50.573Z,36
2017-07-06T04:08:51.999Z,32
2017-07-06T04:09:53.426Z,36
2017-07-06T04:10:54.834Z,36
2017-07-06T04:11:56.282Z,36
2017-07-06T04:12:57.762Z,40
2017-07-06T04:13:59.133Z,36
2017-07-06T04:15:00.558Z,36
2017-07-06T04:16:01.989Z,40
2017-07-06T04:17:03.412Z,40
2017-07-06T04:18:04.841Z,40
2017-07-06T04:19:06.265Z,44
2017-07-06T04:20:07.698Z,40
2017-07-06T04:21:09.133Z,44
2017-07-06T04:22:10.556Z,44
2017-07-06T04:23:11.981Z,44
2017-07-06T04:24:13.417Z,48
2017-07-06T04:25:14.841Z,48
2017-07-06T04:27:36.240Z,48
2017-07-06T04:28:37.668Z,48
2017-07-06T04:29:39.089Z,52
2017-07-06T04:30:40.517Z,48
2017-07-06T04:31:41.943Z,52
2017-07-06T04:32:43.371Z,52
2017-07-06T04:33:44.795Z,56
2017-07-06T04:34:46.222Z,56
2017-07-06T04:35:47.646Z,52
2017-07-06T04:36:49.072Z,56
2017-07-06T04:37:50.502Z,56
2017-07-06T04:38:51.931Z,56
2017-07-06T04:39:53.353Z,60
2017-07-06T04:40:54.777Z,56
2017-07-06T04:41:56.202Z,56
2017-07-06T04:42:57.628Z,60
2017-07-06T04:43:59.053Z,60
2017-07-06T04:45:00.480Z,60
2017-07-06T04:46:01.909Z,60
2017-07-06T04:47:03.335Z,64
2017-07-06T04:48:04.761Z,60
2017-07-06T04:49:06.185Z,60
2017-07-06T04:50:07.610Z,64
2017-07-06T04:51:09.036Z,64
2017-07-06T04:52:10.462Z,64
2017-07-06T04:53:11.883Z,68
2017-07-06T04:54:13.324Z,68
2017-07-06T04:55:14.753Z,64
2017-07-06T04:56:16.174Z,64
2017-07-06T04:57:17.624Z,68
2017-07-06T04:58:19.029Z,68
2017-07-06T04:59:20.456Z,68
2017-07-06T05:00:21.881Z,72
2017-07-06T05:01:23.309Z,72
2017-07-06T05:02:24.734Z,72
2017-07-06T05:03:26.160Z,68
2017-07-06T05:04:27.582Z,72
2017-07-06T05:05:29.009Z,72
2017-07-06T05:06:30.433Z,72
2017-07-06T05:07:31.866Z,72
2017-07-06T05:08:33.325Z,76
2017-07-06T05:09:34.750Z,72
2017-07-06T05:10:36.175Z,72
2017-07-06T05:11:37.603Z,76
2017-07-06T05:12:39.026Z,76
2017-07-06T05:13:40.462Z,76
2017-07-06T05:14:41.891Z,76
2017-07-06T05:15:43.325Z,80
2017-07-06T05:16:44.747Z,76
2017-07-06T05:17:46.171Z,76
2017-07-06T05:18:47.596Z,76
2017-07-06T05:19:49.024Z,80
2017-07-06T05:20:50.452Z,80
2017-07-06T05:21:51.882Z,80
2017-07-06T05:22:53.309Z,80
2017-07-06T05:23:54.733Z,80
2017-07-06T05:24:56.160Z,84
2017-07-06T05:25:57.586Z,80
2017-07-06T05:26:59.008Z,80
2017-07-06T05:28:00.447Z,80
2017-07-06T05:29:01.876Z,84
2017-07-06T05:30:03.306Z,84
2017-07-06T05:31:04.732Z,84
2017-07-06T05:32:06.157Z,84
2017-07-06T05:33:07.586Z,84
2017-07-06T05:34:09.006Z,84
2017-07-06T05:35:10.444Z,84
2017-07-06T05:36:11.866Z,84
2017-07-06T05:37:13.298Z,88
2017-07-06T05:38:14.726Z,88
2017-07-06T05:39:16.149Z,88
2017-07-06T05:40:17.575Z,88
2017-07-06T05:41:19.009Z,88
2017-07-06T05:42:20.431Z,84
2017-07-06T05:43:21.855Z,88
2017-07-06T05:44:23.282Z,88
2017-07-06T05:45:24.716Z,88
2017-07-06T05:46:26.144Z,88
2017-07-06T05:47:27.577Z,92
2017-07-06T05:48:29.000Z,92
2017-07-06T05:49:30.433Z,88
2017-07-06T05:50:31.858Z,92
2017-07-06T05:51:33.279Z,92
2017-07-06T05:52:34.709Z,96
2017-07-06T05:53:36.132Z,96
2017-07-06T05:54:37.576Z,92
2017-07-06T05:55:38.999Z,92
2017-07-06T05:56:40.436Z,96
2017-07-06T05:57:41.857Z,96
2017-07-06T05:58:43.280Z,96
2017-07-06T05:59:44.710Z,96
2017-07-06T06:00:46.134Z,100
2017-07-06T06:01:47.559Z,100
2017-07-06T06:02:48.986Z,100
2017-07-06T06:03:50.412Z,96
2017-07-06T06:04:51.841Z,100
2017-07-06T06:05:53.266Z,100
2017-07-06T06:06:54.693Z,100
2017-07-06T06:07:56.119Z,100
2017-07-06T06:08:57.549Z,100
2017-07-06T06:09:58.980Z,100
2017-07-06T06:11:00.400Z,100
2017-07-06T06:12:01.841Z,104
2017-07-06T06:13:03.269Z,104
2017-07-06T06:14:04.692Z,104
2017-07-06T06:15:06.121Z,100
2017-07-06T06:16:07.553Z,104
2017-07-06T06:17:08.977Z,104
2017-07-06T06:18:10.461Z,104
2017-07-06T06:19:11.844Z,108
2017-07-06T06:20:13.270Z,104
2017-07-06T06:21:14.698Z,104
2017-07-06T06:22:16.125Z,108
2017-07-06T06:23:17.554Z,108
2017-07-06T06:24:18.982Z,108
2017-07-06T06:25:20.416Z,108
2017-07-06T06:26:21.841Z,112
2017-07-06T06:27:23.272Z,112
2017-07-06T06:28:24.699Z,112
2017-07-06T06:29:26.125Z,112
2017-07-06T06:30:27.550Z,108
2017-07-06T06:31:28.978Z,108
2017-07-06T06:32:30.403Z,112
2017-07-06T06:33:31.831Z,112
2017-07-06T06:34:33.255Z,112
2017-07-06T06:35:34.687Z,112
2017-07-06T06:36:36.109Z,112
2017-07-06T06:37:37.540Z,112
2017-07-06T06:38:38.965Z,116
2017-07-06T06:39:40.396Z,112
2017-07-06T06:40:41.823Z,112
2017-07-06T06:41:43.250Z,116
2017-07-06T06:42:44.666Z,116
2017-07-06T06:43:46.103Z,116
2017-07-06T06:44:47.544Z,116
2017-07-06T06:45:48.959Z,112
2017-07-06T06:46:50.427Z,104
2017-07-06T06:47:51.854Z,116
2017-07-06T06:48:53.283Z,116
2017-07-06T06:49:54.707Z,120
2017-07-06T06:50:56.137Z,116
2017-07-06T06:51:57.579Z,116
2017-07-06T06:52:59.005Z,116
2017-07-06T06:54:00.430Z,120
2017-07-06T06:55:01.859Z,120
2017-07-06T06:56:03.285Z,120
2017-07-06T06:57:04.714Z,120
2017-07-06T06:58:06.142Z,120
2017-07-06T06:59:07.569Z,124
2017-07-06T07:00:08.998Z,124
2017-07-06T07:01:10.427Z,124
2017-07-06T07:02:11.853Z,124
2017-07-06T07:03:13.281Z,124
2017-07-06T07:04:14.711Z,124
2017-07-06T07:05:16.141Z,128
2017-07-06T07:06:17.564Z,128
2017-07-06T07:07:18.996Z,128
2017-07-06T07:08:20.425Z,132
2017-07-06T07:09:21.851Z,128
2017-07-06T07:10:23.287Z,132
2017-07-06T07:11:24.714Z,132
2017-07-06T07:12:26.141Z,132
2017-07-06T07:13:27.583Z,136
2017-07-06T07:14:29.004Z,136
2017-07-06T07:15:30.434Z,140
2017-07-06T07:16:31.863Z,140
2017-07-06T07:17:33.287Z,144
2017-07-06T07:18:34.722Z,140
2017-07-06T07:19:36.151Z,144
2017-07-06T07:20:37.575Z,140
2017-07-06T07:21:39.004Z,144
2017-07-06T07:22:40.431Z,144
2017-07-06T07:23:41.858Z,148
2017-07-06T07:24:43.288Z,144
2017-07-06T07:25:44.709Z,144
2017-07-06T07:26:46.139Z,148
2017-07-06T07:27:47.569Z,144
2017-07-06T07:28:48.996Z,148
2017-07-06T07:29:50.423Z,148
2017-07-06T07:30:51.853Z,148
2017-07-06T07:31:53.282Z,152
2017-07-06T07:32:54.708Z,152
2017-07-06T07:33:56.132Z,152
2017-07-06T07:34:57.558Z,156
2017-07-06T07:35:59.005Z,156
2017-07-06T07:37:00.437Z,160
2017-07-06T07:38:01.862Z,164
2017-07-06T07:39:03.287Z,168
2017-07-06T07:40:04.717Z,180
2017-07-06T07:41:06.144Z,188
2017-07-06T07:42:07.576Z,196
2017-07-06T07:43:09.001Z,204
2017-07-06T07:44:10.435Z,216
2017-07-06T07:45:11.862Z,228
2017-07-06T07:46:13.290Z,236
2017-07-06T07:47:14.718Z,252
2017-07-06T07:48:16.149Z,268
2017-07-06T07:49:17.579Z,272
2017-07-06T07:50:19.008Z,264
2017-07-06T07:51:20.439Z,252
2017-07-06T07:52:21.865Z,244
2017-07-06T07:53:23.294Z,236
2017-07-06T07:54:24.721Z,232
2017-07-06T07:55:26.148Z,232
2017-07-06T07:56:27.576Z,240
2017-07-06T07:57:29.003Z,228
2017-07-06T07:58:30.430Z,240
2017-07-06T07:59:31.858Z,220
2017-07-06T08:00:33.289Z,216
2017-07-06T08:01:34.720Z,232
2017-07-06T08:02:36.153Z,204
2017-07-06T08:03:37.579Z,204
2017-07-06T08:04:39.006Z,204
2017-07-06T08:05:40.435Z,208
2017-07-06T08:06:41.863Z,192
2017-07-06T08:07:43.296Z,200
2017-07-06T08:08:44.722Z,184
2017-07-06T08:09:46.173Z,204
2017-07-06T08:10:47.595Z,200
2017-07-06T08:11:49.041Z,196
2017-07-06T08:12:50.469Z,228
2017-07-06T08:13:51.906Z,232
2017-07-06T08:14:53.328Z,236
2017-07-06T08:15:54.752Z,244
2017-07-06T08:16:56.182Z,248
2017-07-06T08:17:57.611Z,256
2017-07-06T08:18:59.046Z,264
2017-07-06T08:20:00.468Z,272
2017-07-06T08:21:01.896Z,280
2017-07-06T08:22:03.327Z,296
2017-07-06T08:23:04.751Z,316
2017-07-06T08:24:06.179Z,356
2017-07-06T08:25:07.608Z,388
2017-07-06T08:26:09.036Z,424
2017-07-06T08:27:10.463Z,468
2017-07-06T08:28:11.892Z,456
2017-07-06T08:29:13.324Z,444
2017-07-06T08:30:14.755Z,424
2017-07-06T08:31:16.201Z,420
2017-07-06T08:32:17.606Z,420
2017-07-06T08:33:19.050Z,424
2017-07-06T08:34:20.480Z,400
2017-07-06T08:35:21.907Z,388
2017-07-06T08:36:23.335Z,384
2017-07-06T08:37:24.762Z,380
2017-07-06T08:38:26.192Z,360
2017-07-06T08:39:27.625Z,340
2017-07-06T08:40:29.046Z,304
2017-07-06T08:41:30.500Z,276
2017-07-06T08:42:31.928Z,256
2017-07-06T08:45:33.302Z,224
2017-07-06T08:46:34.728Z,224
2017-07-06T08:47:36.156Z,216
2017-07-06T08:48:37.592Z,212
2017-07-06T08:49:39.014Z,220
2017-07-06T08:50:40.445Z,236
2017-07-06T08:51:41.876Z,272
2017-07-06T08:52:43.304Z,292
2017-07-06T08:53:44.723Z,280
2017-07-06T08:54:46.168Z,300
2017-07-06T08:55:47.599Z,296
2017-07-06T08:56:49.031Z,280
2017-07-06T08:57:50.463Z,264
2017-07-06T08:58:51.890Z,232
2017-07-06T08:59:53.318Z,240
2017-07-06T09:00:54.750Z,220
2017-07-06T09:01:56.177Z,180
2017-07-06T09:02:57.604Z,148
2017-07-06T09:03:59.031Z,156
2017-07-06T09:05:00.460Z,176
2017-07-06T09:06:01.889Z,188
2017-07-06T09:07:03.318Z,184
2017-07-06T09:08:04.746Z,176
2017-07-06T09:09:06.171Z,192
2017-07-06T09:10:07.603Z,200
2017-07-06T09:11:09.029Z,204
2017-07-06T09:12:10.469Z,204
2017-07-06T09:13:11.896Z,212
2017-07-06T09:14:13.328Z,212
2017-07-06T09:15:14.752Z,216
2017-07-06T09:16:16.195Z,220
2017-07-06T09:17:17.619Z,228
2017-07-06T09:18:19.047Z,240
2017-07-06T09:19:20.482Z,272
2017-07-06T09:20:21.904Z,304
2017-07-06T09:21:23.338Z,332
2017-07-06T09:22:24.759Z,340
2017-07-06T09:23:26.190Z,344
2017-07-06T09:24:27.618Z,352
2017-07-06T09:25:29.045Z,340
2017-07-06T09:26:30.474Z,316
2017-07-06T09:27:31.903Z,292
2017-07-06T09:28:33.330Z,288
2017-07-06T09:29:34.760Z,296
2017-07-06T09:30:36.191Z,304
2017-07-06T09:31:37.620Z,312
2017-07-06T09:32:39.051Z,292
2017-07-06T09:33:40.478Z,260
2017-07-06T09:34:41.907Z,228
2017-07-06T09:35:43.331Z,232
2017-07-06T09:36:44.757Z,228
2017-07-06T09:37:46.186Z,216
2017-07-06T09:38:47.614Z,200
2017-07-06T09:39:49.043Z,184
2017-07-06T09:40:50.482Z,208
2017-07-06T09:41:51.908Z,212
2017-07-06T09:42:53.331Z,184
2017-07-06T09:43:54.762Z,192
2017-07-06T09:44:56.190Z,192
2017-07-06T09:45:57.618Z,228
2017-07-06T09:46:59.045Z,228
2017-07-06T09:48:00.473Z,228
2017-07-06T09:49:01.902Z,228
2017-07-06T09:50:03.336Z,232
2017-07-06T09:51:04.760Z,240
2017-07-06T09:52:06.188Z,248
2017-07-06T09:53:07.612Z,260
2017-07-06T09:54:09.043Z,264
2017-07-06T09:55:10.481Z,268
2017-07-06T09:56:11.899Z,268
2017-07-06T09:57:13.341Z,268
2017-07-06T09:58:14.766Z,268
2017-07-06T09:59:16.196Z,264
2017-07-06T10:00:17.621Z,256
2017-07-06T10:01:19.048Z,252
2017-07-06T10:02:20.477Z,244
2017-07-06T10:03:21.906Z,232
2017-07-06T10:04:23.331Z,228
2017-07-06T10:05:24.760Z,220
2017-07-06T10:06:26.187Z,220
2017-07-06T10:07:27.616Z,208
2017-07-06T10:08:29.048Z,204
2017-07-06T10:09:30.478Z,204
2017-07-06T10:10:31.905Z,216
2017-07-06T10:11:33.330Z,220
2017-07-06T10:12:34.761Z,216
2017-07-06T10:13:36.185Z,216
2017-07-06T10:14:37.615Z,212
2017-07-06T10:15:39.046Z,216
2017-07-06T10:16:40.474Z,216
2017-07-06T10:17:41.903Z,212
2017-07-06T10:18:43.333Z,208
2017-07-06T10:19:44.765Z,188
2017-07-06T10:20:46.197Z,216
2017-07-06T10:21:47.626Z,220
2017-07-06T10:22:49.054Z,220
2017-07-06T10:23:50.482Z,220
2017-07-06T10:24:51.918Z,224
2017-07-06T10:25:53.340Z,228
2017-07-06T10:26:54.771Z,232
2017-07-06T10:27:56.206Z,236
2017-07-06T10:28:57.624Z,240
2017-07-06T10:29:59.054Z,236
2017-07-06T10:31:00.483Z,240
2017-07-06T10:32:01.915Z,244
2017-07-06T10:33:03.343Z,244
2017-07-06T10:34:04.772Z,244
2017-07-06T10:35:06.207Z,240
2017-07-06T10:36:07.635Z,240
2017-07-06T10:37:09.063Z,240
2017-07-06T10:38:10.490Z,236
2017-07-06T10:39:11.920Z,236
2017-07-06T10:40:13.345Z,236
2017-07-06T10:41:14.777Z,240
2017-07-06T10:42:16.202Z,240
2017-07-06T10:43:17.633Z,240
2017-07-06T10:44:19.062Z,244
2017-07-06T10:45:20.493Z,244
2017-07-06T10:46:21.929Z,244
2017-07-06T10:47:23.348Z,248
2017-07-06T10:48:24.777Z,248
2017-07-06T10:49:26.203Z,248
2017-07-06T10:50:27.629Z,248
2017-07-06T10:51:29.061Z,248
2017-07-06T10:52:30.487Z,252
2017-07-06T10:53:31.916Z,252
2017-07-06T10:54:33.352Z,256
2017-07-06T10:55:34.779Z,256
2017-07-06T10:56:36.211Z,256
2017-07-06T10:57:37.638Z,256
2017-07-06T10:58:39.065Z,256
2017-07-06T10:59:40.492Z,260
2017-07-06T11:00:41.919Z,260
2017-07-06T11:01:43.348Z,264
2017-07-06T11:02:44.779Z,272
2017-07-06T11:03:46.209Z,280
2017-07-06T11:04:47.636Z,292
2017-07-06T11:05:49.063Z,296
2017-07-06T11:06:50.492Z,300
2017-07-06T11:07:51.926Z,276
2017-07-06T11:08:53.353Z,304
2017-07-06T11:09:54.780Z,320
2017-07-06T11:10:56.210Z,328
2017-07-06T11:11:57.641Z,340
2017-07-06T11:12:59.073Z,384
2017-07-06T11:14:00.500Z,400
2017-07-06T11:15:01.927Z,440
2017-07-06T11:16:03.358Z,476
2017-07-06T11:17:04.787Z,508
2017-07-06T11:18:06.216Z,536
2017-07-06T11:19:07.645Z,548
2017-07-06T11:20:09.074Z,524
2017-07-06T11:21:10.502Z,464
2017-07-06T11:22:11.934Z,464
2017-07-06T11:23:13.361Z,460
2017-07-06T11:24:14.791Z,468
2017-07-06T11:25:16.218Z,468
2017-07-06T11:26:17.650Z,484
2017-07-06T11:27:19.077Z,504
2017-07-06T11:28:20.504Z,564
2017-07-06T11:29:21.936Z,560
2017-07-06T11:30:23.368Z,544
2017-07-06T11:31:24.792Z,532
2017-07-06T11:32:26.232Z,540
2017-07-06T11:33:27.659Z,588
2017-07-06T11:34:29.089Z,616
2017-07-06T11:35:30.518Z,656
2017-07-06T11:36:31.950Z,604
2017-07-06T11:37:33.387Z,680
2017-07-06T11:38:34.821Z,728
2017-07-06T11:39:36.267Z,720
2017-07-06T11:40:37.708Z,736
2017-07-06T11:41:39.137Z,644
2017-07-06T11:42:40.575Z,628
2017-07-06T11:43:42.006Z,644
2017-07-06T11:44:43.540Z,648
2017-07-06T11:45:44.971Z,664
2017-07-06T11:46:46.401Z,700
2017-07-06T11:47:47.831Z,704
2017-07-06T11:48:49.261Z,700
2017-07-06T11:49:50.694Z,660
2017-07-06T11:50:52.123Z,636
2017-07-06T11:51:53.553Z,616
2017-07-06T11:52:54.984Z,588
2017-07-06T11:53:56.413Z,572
2017-07-06T11:54:57.842Z,576
2017-07-06T11:55:59.270Z,596
2017-07-06T11:57:00.705Z,636
2017-07-06T11:58:02.129Z,680
2017-07-06T11:59:03.563Z,712
2017-07-06T12:00:04.993Z,740
2017-07-06T12:01:06.426Z,792
2017-07-06T12:02:07.876Z,772
2017-07-06T12:03:09.303Z,764
2017-07-06T12:04:10.736Z,756
2017-07-06T12:05:12.169Z,760
2017-07-06T12:06:13.601Z,760
2017-07-06T12:07:15.027Z,772
2017-07-06T12:08:16.461Z,808
2017-07-06T12:09:17.887Z,736
2017-07-06T12:10:19.317Z,696
2017-07-06T12:11:20.749Z,668
2017-07-06T12:12:22.187Z,656
2017-07-06T12:13:23.617Z,700
2017-07-06T12:14:25.046Z,680
2017-07-06T12:15:26.477Z,688
2017-07-06T12:16:27.908Z,712
2017-07-06T12:17:29.338Z,836
2017-07-06T12:18:30.768Z,820
2017-07-06T12:19:32.199Z,856
2017-07-06T12:20:33.629Z,812
2017-07-06T12:21:35.059Z,776
2017-07-06T12:22:36.490Z,664
2017-07-06T12:23:37.923Z,648
2017-07-06T12:24:39.355Z,648
2017-07-06T12:25:40.784Z,684
2017-07-06T12:26:42.215Z,764
2017-07-06T12:27:43.646Z,648
2017-07-06T12:28:45.075Z,688
2017-07-06T12:29:46.507Z,708
2017-07-06T12:30:47.950Z,720
2017-07-06T12:31:49.377Z,688
2017-07-06T12:32:50.807Z,760
2017-07-06T12:33:52.246Z,768
2017-07-06T12:34:53.683Z,764
2017-07-06T12:35:55.119Z,724
2017-07-06T12:36:56.556Z,684
2017-07-06T12:37:57.987Z,672
2017-07-06T12:38:59.416Z,628
2017-07-06T12:40:00.860Z,624
2017-07-06T12:41:02.284Z,628
2017-07-06T12:42:03.713Z,688
2017-07-06T12:43:05.144Z,724
2017-07-06T12:44:06.578Z,740
2017-07-06T12:45:08.007Z,760
2017-07-06T12:46:09.437Z,792
2017-07-06T12:47:10.868Z,812
2017-07-06T12:48:12.301Z,836
2017-07-06T12:49:13.732Z,876
2017-07-06T12:50:15.162Z,880
2017-07-06T12:51:16.594Z,860
2017-07-06T12:52:18.021Z,884
2017-07-06T12:53:19.461Z,876
2017-07-06T12:54:20.895Z,932
2017-07-06T12:55:22.329Z,1040
2017-07-06T12:56:23.763Z,1060
2017-07-06T12:57:25.194Z,1096
2017-07-06T12:58:26.629Z,1068
2017-07-06T12:59:28.057Z,980
2017-07-06T13:00:29.489Z,900
2017-07-06T13:01:30.925Z,796
2017-07-06T13:02:32.356Z,764
2017-07-06T13:03:33.784Z,752
2017-07-06T13:04:35.217Z,756
2017-07-06T13:05:36.645Z,760
2017-07-06T13:06:38.080Z,792
2017-07-06T13:07:39.514Z,824
2017-07-06T13:08:40.943Z,876
2017-07-06T13:09:42.388Z,872
2017-07-06T13:10:43.820Z,924
2017-07-06T13:11:45.268Z,964
2017-07-06T13:12:46.698Z,1060
2017-07-06T13:13:48.135Z,1036
2017-07-06T13:14:49.569Z,1056
2017-07-06T13:15:51.004Z,1080
2017-07-06T13:16:52.433Z,1096
2017-07-06T13:17:53.866Z,1104
2017-07-06T13:18:55.296Z,1060
2017-07-06T13:19:56.727Z,884
2017-07-06T13:20:58.155Z,612
2017-07-06T13:21:59.584Z,468
2017-07-06T13:23:01.016Z,456
2017-07-06T13:24:02.446Z,464
2017-07-06T13:25:03.878Z,472
2017-07-06T13:26:05.306Z,456
2017-07-06T13:27:06.736Z,436
2017-07-06T13:28:08.166Z,400
2017-07-06T13:29:09.600Z,372
2017-07-06T13:30:11.025Z,336
2017-07-06T13:31:12.465Z,292
2017-07-06T13:32:13.895Z,248
2017-07-06T13:33:15.324Z,212
2017-07-06T13:34:16.759Z,192
2017-07-06T13:35:18.195Z,176
2017-07-06T13:36:19.625Z,168
2017-07-06T13:37:21.055Z,168
2017-07-06T13:38:22.480Z,172
2017-07-06T13:39:23.921Z,188
2017-07-06T13:40:25.354Z,208
2017-07-06T13:41:26.786Z,228
2017-07-06T13:42:28.211Z,240
2017-07-06T13:43:29.639Z,252
2017-07-06T13:44:31.069Z,252
2017-07-06T13:45:32.500Z,244
2017-07-06T13:46:33.932Z,220
2017-07-06T13:47:35.360Z,200
2017-07-06T13:48:36.791Z,176
2017-07-06T13:49:38.219Z,160
2017-07-06T13:50:39.650Z,144
2017-07-06T13:51:41.081Z,136
2017-07-06T13:52:42.515Z,124
2017-07-06T13:53:43.943Z,112
2017-07-06T13:54:45.375Z,104
2017-07-06T13:55:46.806Z,92
2017-07-06T13:56:48.232Z,84
2017-07-06T13:57:49.664Z,76
2017-07-06T13:58:51.090Z,72
2017-07-06T13:59:52.520Z,64
2017-07-06T14:00:53.952Z,60
2017-07-06T14:01:55.381Z,52
2017-07-06T14:02:56.806Z,52
2017-07-06T14:03:58.237Z,48
2017-07-06T14:04:59.736Z,44
2017-07-06T14:06:01.177Z,44
2017-07-06T14:07:02.782Z,40
2017-07-06T14:08:04.212Z,36
2017-07-06T14:09:05.648Z,36
2017-07-06T14:10:07.077Z,36
2017-07-06T14:11:08.503Z,32
2017-07-06T14:12:09.933Z,32
2017-07-06T14:13:11.362Z,32
2017-07-06T14:14:12.887Z,32
2017-07-06T14:15:14.185Z,32
2017-07-06T14:16:15.756Z,28
2017-07-06T14:17:17.181Z,28
2017-07-06T14:18:18.613Z,28
2017-07-06T14:19:20.043Z,32
2017-07-06T14:20:21.599Z,32
2017-07-06T14:21:23.135Z,36
2017-07-06T14:22:24.565Z,36
2017-07-06T14:23:25.993Z,32
2017-07-06T14:24:27.482Z,24
2017-07-06T14:25:28.910Z,16
2017-07-06T14:26:30.353Z,12
2017-07-06T14:27:31.781Z,8
2017-07-06T14:28:33.296Z,8
2017-07-06T14:29:34.753Z,4